Weather at La Loche Airport

Public forecast

Using degrees Celsius for public forecast. Weather courtesy of forecast.io.

Closest aviation weather report (METAR) to La Loche Airport

Closest report is Buffalo Narrows Airport, 50.2 nm (93.0 km) SE.

2024/04/24 16:00 (retrieved 43 minutes ago)

CYVT 241600Z AUTO 09008KT 9SM CLR 10/M03 A2989 RMK SLP139

Closest aviation forecast (TAF) to La Loche Airport

Closest forecast is Buffalo Narrows Airport, 50.2 nm (93.0 km) SE.

2024/04/24 14:42 (retrieved 2 hours ago)

TAF CYVT 241340Z 2414/2502 10006KT P6SM SCT240 BECMG 2416/2418 10010KT FM241900 11012KT P6SM SCT120 BKN180 RMK FCST BASED ON AUTO OBS NXT FCST BY 242100Z